sensor_id;sensor_type;location;lat;lon;timestamp;P1;durP1;ratioP1;P2;durP2;ratioP2
7049;SDS011;22263;52.260;10.548;2023-08-01T00:00:05;0.20;;;0.20;;
7049;SDS011;22263;52.260;10.548;2023-08-01T00:02:39;0.30;;;0.30;;
7049;SDS011;22263;52.260;10.548;2023-08-01T00:05:11;0.30;;;0.30;;
7049;SDS011;22263;52.260;10.548;2023-08-01T00:07:44;0.20;;;0.20;;
7049;SDS011;22263;52.260;10.548;2023-08-01T00:10:14;0.30;;;0.30;;
7049;SDS011;22263;52.260;10.548;2023-08-01T00:12:44;0.30;;;0.30;;
7049;SDS011;22263;52.260;10.548;2023-08-01T00:15:14;0.20;;;0.20;;
7049;SDS011;22263;52.260;10.548;2023-08-01T00:17:44;0.20;;;0.20;;
7049;SDS011;22263;52.260;10.548;2023-08-01T00:20:14;0.20;;;0.20;;
7049;SDS011;22263;52.260;10.548;2023-08-01T00:22:46;0.20;;;0.20;;
7049;SDS011;22263;52.260;10.548;2023-08-01T00:25:16;0.20;;;0.20;;
7049;SDS011;22263;52.260;10.548;2023-08-01T00:27:46;0.20;;;0.20;;
7049;SDS011;22263;52.260;10.548;2023-08-01T00:30:18;0.30;;;0.30;;
7049;SDS011;22263;52.260;10.548;2023-08-01T00:32:48;0.20;;;0.20;;
7049;SDS011;22263;52.260;10.548;2023-08-01T00:35:18;0.20;;;0.20;;
7049;SDS011;22263;52.260;10.548;2023-08-01T00:37:50;0.20;;;0.20;;
7049;SDS011;22263;52.260;10.548;2023-08-01T00:40:20;0.30;;;0.30;;
7049;SDS011;22263;52.260;10.548;2023-08-01T00:42:51;0.20;;;0.20;;
7049;SDS011;22263;52.260;10.548;2023-08-01T00:45:23;0.20;;;0.20;;
7049;SDS011;22263;52.260;10.548;2023-08-01T00:47:54;0.20;;;0.20;;
7049;SDS011;22263;52.260;10.548;2023-08-01T00:50:24;0.20;;;0.20;;
7049;SDS011;22263;52.260;10.548;2023-08-01T00:52:56;0.20;;;0.20;;
7049;SDS011;22263;52.260;10.548;2023-08-01T00:55:27;0.30;;;0.30;;
7049;SDS011;22263;52.260;10.548;2023-08-01T00:57:58;0.20;;;0.20;;
7049;SDS011;22263;52.260;10.548;2023-08-01T01:00:28;0.20;;;0.20;;
7049;SDS011;22263;52.260;10.548;2023-08-01T01:03:00;0.20;;;0.20;;
7049;SDS011;22263;52.260;10.548;2023-08-01T01:05:31;0.25;;;0.25;;
7049;SDS011;22263;52.260;10.548;2023-08-01T01:08:08;0.22;;;0.22;;
7049;SDS011;22263;52.260;10.548;2023-08-01T01:10:38;0.20;;;0.20;;
7049;SDS011;22263;52.260;10.548;2023-08-01T01:13:08;0.20;;;0.20;;
7049;SDS011;22263;52.260;10.548;2023-08-01T01:15:38;0.20;;;0.20;;
7049;SDS011;22263;52.260;10.548;2023-08-01T01:18:08;0.20;;;0.20;;
7049;SDS011;22263;52.260;10.548;2023-08-01T01:20:40;0.30;;;0.30;;
7049;SDS011;22263;52.260;10.548;2023-08-01T01:23:10;0.20;;;0.20;;
7049;SDS011;22263;52.260;10.548;2023-08-01T01:25:40;0.20;;;0.20;;
7049;SDS011;22263;52.260;10.548;2023-08-01T01:28:11;0.30;;;0.30;;
7049;SDS011;22263;52.260;10.548;2023-08-01T01:33:23;0.20;;;0.20;;
7049;SDS011;22263;52.260;10.548;2023-08-01T01:36:00;0.30;;;0.30;;
7049;SDS011;22263;52.260;10.548;2023-08-01T01:38:34;0.20;;;0.20;;
7049;SDS011;22263;52.260;10.548;2023-08-01T01:41:03;0.22;;;0.22;;
7049;SDS011;22263;52.260;10.548;2023-08-01T01:43:33;0.20;;;0.20;;
7049;SDS011;22263;52.260;10.548;2023-08-01T01:46:05;0.22;;;0.22;;
7049;SDS011;22263;52.260;10.548;2023-08-01T01:48:34;0.20;;;0.20;;
7049;SDS011;22263;52.260;10.548;2023-08-01T01:51:07;0.22;;;0.22;;
7049;SDS011;22263;52.260;10.548;2023-08-01T01:53:37;0.20;;;0.20;;
7049;SDS011;22263;52.260;10.548;2023-08-01T01:56:07;0.30;;;0.30;;
7049;SDS011;22263;52.260;10.548;2023-08-01T01:58:36;0.20;;;0.20;;
7049;SDS011;22263;52.260;10.548;2023-08-01T02:01:06;0.30;;;0.30;;
7049;SDS011;22263;52.260;10.548;2023-08-01T02:03:37;0.20;;;0.20;;
7049;SDS011;22263;52.260;10.548;2023-08-01T02:06:09;0.20;;;0.20;;
7049;SDS011;22263;52.260;10.548;2023-08-01T02:08:39;0.28;;;0.28;;
7049;SDS011;22263;52.260;10.548;2023-08-01T02:11:09;0.20;;;0.20;;
7049;SDS011;22263;52.260;10.548;2023-08-01T02:13:39;0.20;;;0.20;;
7049;SDS011;22263;52.260;10.548;2023-08-01T02:16:08;0.25;;;0.25;;
7049;SDS011;22263;52.260;10.548;2023-08-01T02:18:38;0.30;;;0.30;;
7049;SDS011;22263;52.260;10.548;2023-08-01T02:21:10;0.20;;;0.20;;
7049;SDS011;22263;52.260;10.548;2023-08-01T02:23:40;0.20;;;0.20;;
7049;SDS011;22263;52.260;10.548;2023-08-01T02:26:10;0.20;;;0.20;;
7049;SDS011;22263;52.260;10.548;2023-08-01T02:28:41;0.13;;;0.13;;
7049;SDS011;22263;52.260;10.548;2023-08-01T02:31:11;0.20;;;0.20;;
7049;SDS011;22263;52.260;10.548;2023-08-01T02:33:40;0.20;;;0.20;;
7049;SDS011;22263;52.260;10.548;2023-08-01T02:36:13;0.20;;;0.20;;
7049;SDS011;22263;52.260;10.548;2023-08-01T02:38:42;0.30;;;0.30;;
7049;SDS011;22263;52.260;10.548;2023-08-01T02:41:12;0.20;;;0.20;;
7049;SDS011;22263;52.260;10.548;2023-08-01T02:43:42;0.30;;;0.30;;
7049;SDS011;22263;52.260;10.548;2023-08-01T02:46:12;0.20;;;0.20;;
7049;SDS011;22263;52.260;10.548;2023-08-01T02:48:41;0.25;;;0.25;;
7049;SDS011;22263;52.260;10.548;2023-08-01T02:51:09;0.20;;;0.20;;
7049;SDS011;22263;52.260;10.548;2023-08-01T02:53:41;0.20;;;0.20;;
7049;SDS011;22263;52.260;10.548;2023-08-01T02:56:11;0.28;;;0.28;;
7049;SDS011;22263;52.260;10.548;2023-08-01T02:58:41;0.30;;;0.30;;
7049;SDS011;22263;52.260;10.548;2023-08-01T03:01:11;0.20;;;0.20;;
7049;SDS011;22263;52.260;10.548;2023-08-01T03:03:41;0.28;;;0.28;;
7049;SDS011;22263;52.260;10.548;2023-08-01T03:06:11;0.20;;;0.20;;
7049;SDS011;22263;52.260;10.548;2023-08-01T03:08:45;0.20;;;0.20;;
7049;SDS011;22263;52.260;10.548;2023-08-01T03:11:16;0.20;;;0.20;;
7049;SDS011;22263;52.260;10.548;2023-08-01T03:13:45;0.20;;;0.20;;
7049;SDS011;22263;52.260;10.548;2023-08-01T03:16:15;0.20;;;0.20;;
7049;SDS011;22263;52.260;10.548;2023-08-01T03:18:45;0.30;;;0.30;;
7049;SDS011;22263;52.260;10.548;2023-08-01T03:21:15;0.20;;;0.20;;
7049;SDS011;22263;52.260;10.548;2023-08-01T03:23:47;0.20;;;0.20;;
7049;SDS011;22263;52.260;10.548;2023-08-01T03:26:17;0.20;;;0.20;;
7049;SDS011;22263;52.260;10.548;2023-08-01T03:28:47;0.20;;;0.20;;
7049;SDS011;22263;52.260;10.548;2023-08-01T03:31:16;0.20;;;0.20;;
7049;SDS011;22263;52.260;10.548;2023-08-01T03:33:46;0.20;;;0.20;;
7049;SDS011;22263;52.260;10.548;2023-08-01T03:36:16;0.20;;;0.20;;
7049;SDS011;22263;52.260;10.548;2023-08-01T03:38:48;0.20;;;0.20;;
7049;SDS011;22263;52.260;10.548;2023-08-01T03:41:18;0.20;;;0.20;;
7049;SDS011;22263;52.260;10.548;2023-08-01T03:43:48;0.20;;;0.20;;
7049;SDS011;22263;52.260;10.548;2023-08-01T03:46:18;0.20;;;0.20;;
7049;SDS011;22263;52.260;10.548;2023-08-01T03:48:48;0.20;;;0.20;;
7049;SDS011;22263;52.260;10.548;2023-08-01T03:51:17;0.20;;;0.20;;
7049;SDS011;22263;52.260;10.548;2023-08-01T03:53:51;0.30;;;0.30;;
7049;SDS011;22263;52.260;10.548;2023-08-01T03:56:38;0.20;;;0.20;;
7049;SDS011;22263;52.260;10.548;2023-08-01T03:59:10;0.20;;;0.20;;
7049;SDS011;22263;52.260;10.548;2023-08-01T04:01:41;0.30;;;0.30;;
7049;SDS011;22263;52.260;10.548;2023-08-01T04:04:11;0.20;;;0.20;;
7049;SDS011;22263;52.260;10.548;2023-08-01T04:06:41;0.30;;;0.30;;
7049;SDS011;22263;52.260;10.548;2023-08-01T04:09:13;0.30;;;0.30;;
7049;SDS011;22263;52.260;10.548;2023-08-01T04:11:43;0.28;;;0.28;;
7049;SDS011;22263;52.260;10.548;2023-08-01T04:14:12;0.20;;;0.20;;
7049;SDS011;22263;52.260;10.548;2023-08-01T04:16:42;0.30;;;0.30;;
7049;SDS011;22263;52.260;10.548;2023-08-01T04:19:12;0.20;;;0.20;;
7049;SDS011;22263;52.260;10.548;2023-08-01T04:21:42;0.22;;;0.22;;
7049;SDS011;22263;52.260;10.548;2023-08-01T04:24:14;0.20;;;0.20;;
7049;SDS011;22263;52.260;10.548;2023-08-01T04:26:44;0.30;;;0.30;;
7049;SDS011;22263;52.260;10.548;2023-08-01T04:29:14;0.20;;;0.20;;
7049;SDS011;22263;52.260;10.548;2023-08-01T04:31:44;0.30;;;0.30;;
7049;SDS011;22263;52.260;10.548;2023-08-01T04:34:14;0.20;;;0.20;;
7049;SDS011;22263;52.260;10.548;2023-08-01T04:36:43;0.20;;;0.20;;
7049;SDS011;22263;52.260;10.548;2023-08-01T04:39:16;0.20;;;0.20;;
7049;SDS011;22263;52.260;10.548;2023-08-01T04:41:46;0.20;;;0.20;;
7049;SDS011;22263;52.260;10.548;2023-08-01T04:44:16;0.20;;;0.20;;
7049;SDS011;22263;52.260;10.548;2023-08-01T04:46:47;0.20;;;0.20;;
7049;SDS011;22263;52.260;10.548;2023-08-01T04:49:17;0.28;;;0.28;;
7049;SDS011;22263;52.260;10.548;2023-08-01T04:51:48;0.20;;;0.20;;
7049;SDS011;22263;52.260;10.548;2023-08-01T04:54:21;0.22;;;0.22;;
7049;SDS011;22263;52.260;10.548;2023-08-01T04:56:51;0.30;;;0.30;;
7049;SDS011;22263;52.260;10.548;2023-08-01T04:59:21;0.20;;;0.20;;
7049;SDS011;22263;52.260;10.548;2023-08-01T05:01:51;0.20;;;0.20;;
7049;SDS011;22263;52.260;10.548;2023-08-01T05:04:20;0.20;;;0.20;;
7049;SDS011;22263;52.260;10.548;2023-08-01T05:06:50;0.20;;;0.20;;
7049;SDS011;22263;52.260;10.548;2023-08-01T05:09:22;0.10;;;0.10;;
7049;SDS011;22263;52.260;10.548;2023-08-01T05:11:52;0.20;;;0.20;;
7049;SDS011;22263;52.260;10.548;2023-08-01T05:14:22;0.20;;;0.20;;
7049;SDS011;22263;52.260;10.548;2023-08-01T05:16:52;0.20;;;0.20;;
7049;SDS011;22263;52.260;10.548;2023-08-01T05:19:21;0.20;;;0.20;;
7049;SDS011;22263;52.260;10.548;2023-08-01T05:21:51;0.20;;;0.20;;
7049;SDS011;22263;52.260;10.548;2023-08-01T05:24:24;0.20;;;0.20;;
7049;SDS011;22263;52.260;10.548;2023-08-01T05:26:54;0.20;;;0.20;;
7049;SDS011;22263;52.260;10.548;2023-08-01T05:29:23;0.20;;;0.20;;
7049;SDS011;22263;52.260;10.548;2023-08-01T05:31:53;0.20;;;0.20;;
7049;SDS011;22263;52.260;10.548;2023-08-01T05:34:23;0.20;;;0.20;;
7049;SDS011;22263;52.260;10.548;2023-08-01T05:36:53;0.10;;;0.10;;
7049;SDS011;22263;52.260;10.548;2023-08-01T05:39:25;0.20;;;0.20;;
7049;SDS011;22263;52.260;10.548;2023-08-01T05:41:55;0.20;;;0.20;;
7049;SDS011;22263;52.260;10.548;2023-08-01T05:44:25;0.20;;;0.20;;
7049;SDS011;22263;52.260;10.548;2023-08-01T05:46:54;0.20;;;0.20;;
7049;SDS011;22263;52.260;10.548;2023-08-01T05:49:24;0.20;;;0.20;;
7049;SDS011;22263;52.260;10.548;2023-08-01T05:51:54;0.20;;;0.20;;
7049;SDS011;22263;52.260;10.548;2023-08-01T05:54:27;0.20;;;0.20;;
7049;SDS011;22263;52.260;10.548;2023-08-01T05:56:56;0.20;;;0.20;;
7049;SDS011;22263;52.260;10.548;2023-08-01T05:59:26;0.30;;;0.30;;
7049;SDS011;22263;52.260;10.548;2023-08-01T06:01:56;0.20;;;0.20;;
7049;SDS011;22263;52.260;10.548;2023-08-01T06:04:26;0.30;;;0.30;;
7049;SDS011;22263;52.260;10.548;2023-08-01T06:06:56;0.20;;;0.20;;
7049;SDS011;22263;52.260;10.548;2023-08-01T06:09:28;0.30;;;0.30;;
7049;SDS011;22263;52.260;10.548;2023-08-01T06:11:58;0.20;;;0.20;;
7049;SDS011;22263;52.260;10.548;2023-08-01T06:14:28;0.20;;;0.20;;
7049;SDS011;22263;52.260;10.548;2023-08-01T06:16:58;0.20;;;0.20;;
7049;SDS011;22263;52.260;10.548;2023-08-01T06:19:27;0.20;;;0.20;;
7049;SDS011;22263;52.260;10.548;2023-08-01T06:21:57;0.20;;;0.20;;
7049;SDS011;22263;52.260;10.548;2023-08-01T06:24:30;0.22;;;0.22;;
7049;SDS011;22263;52.260;10.548;2023-08-01T06:26:59;0.20;;;0.20;;
7049;SDS011;22263;52.260;10.548;2023-08-01T06:29:29;0.30;;;0.30;;
7049;SDS011;22263;52.260;10.548;2023-08-01T06:31:59;0.20;;;0.20;;
7049;SDS011;22263;52.260;10.548;2023-08-01T06:34:29;0.22;;;0.22;;
7049;SDS011;22263;52.260;10.548;2023-08-01T06:36:58;0.20;;;0.20;;
7049;SDS011;22263;52.260;10.548;2023-08-01T06:39:31;0.20;;;0.20;;
7049;SDS011;22263;52.260;10.548;2023-08-01T06:42:01;0.20;;;0.20;;
7049;SDS011;22263;52.260;10.548;2023-08-01T06:44:30;0.20;;;0.20;;
7049;SDS011;22263;52.260;10.548;2023-08-01T06:47:00;0.20;;;0.20;;
7049;SDS011;22263;52.260;10.548;2023-08-01T06:49:30;0.20;;;0.20;;
7049;SDS011;22263;52.260;10.548;2023-08-01T06:52:00;0.20;;;0.20;;
7049;SDS011;22263;52.260;10.548;2023-08-01T06:54:32;0.10;;;0.10;;
7049;SDS011;22263;52.260;10.548;2023-08-01T06:57:04;0.22;;;0.22;;
7049;SDS011;22263;52.260;10.548;2023-08-01T06:59:35;0.22;;;0.22;;
7049;SDS011;22263;52.260;10.548;2023-08-01T07:02:05;0.20;;;0.20;;
7049;SDS011;22263;52.260;10.548;2023-08-01T07:04:35;0.20;;;0.20;;
7049;SDS011;22263;52.260;10.548;2023-08-01T07:07:05;0.20;;;0.20;;
7049;SDS011;22263;52.260;10.548;2023-08-01T07:09:37;0.20;;;0.20;;
7049;SDS011;22263;52.260;10.548;2023-08-01T07:12:07;0.20;;;0.20;;
7049;SDS011;22263;52.260;10.548;2023-08-01T07:14:37;0.22;;;0.22;;
7049;SDS011;22263;52.260;10.548;2023-08-01T07:17:07;0.20;;;0.20;;
7049;SDS011;22263;52.260;10.548;2023-08-01T07:19:36;0.20;;;0.20;;
7049;SDS011;22263;52.260;10.548;2023-08-01T07:22:06;0.20;;;0.20;;
7049;SDS011;22263;52.260;10.548;2023-08-01T07:24:39;0.20;;;0.20;;
7049;SDS011;22263;52.260;10.548;2023-08-01T07:27:08;0.30;;;0.30;;
7049;SDS011;22263;52.260;10.548;2023-08-01T07:29:38;0.15;;;0.15;;
7049;SDS011;22263;52.260;10.548;2023-08-01T07:32:08;0.22;;;0.22;;
7049;SDS011;22263;52.260;10.548;2023-08-01T07:34:38;0.20;;;0.20;;
7049;SDS011;22263;52.260;10.548;2023-08-01T07:37:07;0.20;;;0.20;;
7049;SDS011;22263;52.260;10.548;2023-08-01T07:39:39;0.20;;;0.20;;
7049;SDS011;22263;52.260;10.548;2023-08-01T07:42:09;0.20;;;0.20;;
7049;SDS011;22263;52.260;10.548;2023-08-01T07:44:39;0.20;;;0.20;;
7049;SDS011;22263;52.260;10.548;2023-08-01T07:47:09;0.30;;;0.30;;
7049;SDS011;22263;52.260;10.548;2023-08-01T07:49:38;0.20;;;0.20;;
7049;SDS011;22263;52.260;10.548;2023-08-01T07:52:08;0.20;;;0.20;;
7049;SDS011;22263;52.260;10.548;2023-08-01T07:54:40;0.28;;;0.28;;
7049;SDS011;22263;52.260;10.548;2023-08-01T07:57:10;0.20;;;0.20;;
7049;SDS011;22263;52.260;10.548;2023-08-01T07:59:40;0.15;;;0.15;;
7049;SDS011;22263;52.260;10.548;2023-08-01T08:02:10;0.20;;;0.20;;
7049;SDS011;22263;52.260;10.548;2023-08-01T08:04:39;0.20;;;0.20;;
7049;SDS011;22263;52.260;10.548;2023-08-01T08:07:09;0.20;;;0.20;;
7049;SDS011;22263;52.260;10.548;2023-08-01T08:09:41;0.20;;;0.20;;
7049;SDS011;22263;52.260;10.548;2023-08-01T08:12:11;0.20;;;0.20;;
7049;SDS011;22263;52.260;10.548;2023-08-01T08:14:41;0.30;;;0.30;;
7049;SDS011;22263;52.260;10.548;2023-08-01T08:17:10;0.25;;;0.25;;
7049;SDS011;22263;52.260;10.548;2023-08-01T08:19:40;0.28;;;0.28;;
7049;SDS011;22263;52.260;10.548;2023-08-01T08:22:10;0.20;;;0.20;;
7049;SDS011;22263;52.260;10.548;2023-08-01T08:24:42;0.20;;;0.20;;
7049;SDS011;22263;52.260;10.548;2023-08-01T08:27:12;0.15;;;0.15;;
7049;SDS011;22263;52.260;10.548;2023-08-01T08:29:42;0.20;;;0.20;;
7049;SDS011;22263;52.260;10.548;2023-08-01T08:32:12;0.10;;;0.10;;
7049;SDS011;22263;52.260;10.548;2023-08-01T08:34:42;0.20;;;0.20;;
7049;SDS011;22263;52.260;10.548;2023-08-01T08:37:11;0.20;;;0.20;;
7049;SDS011;22263;52.260;10.548;2023-08-01T08:39:43;0.20;;;0.20;;
7049;SDS011;22263;52.260;10.548;2023-08-01T08:42:13;0.20;;;0.20;;
7049;SDS011;22263;52.260;10.548;2023-08-01T08:44:47;0.20;;;0.20;;
7049;SDS011;22263;52.260;10.548;2023-08-01T08:47:24;0.20;;;0.20;;
7049;SDS011;22263;52.260;10.548;2023-08-01T08:49:55;0.20;;;0.20;;
7049;SDS011;22263;52.260;10.548;2023-08-01T08:52:25;0.20;;;0.20;;
7049;SDS011;22263;52.260;10.548;2023-08-01T08:54:59;0.20;;;0.20;;
7049;SDS011;22263;52.260;10.548;2023-08-01T08:57:30;0.20;;;0.20;;
7049;SDS011;22263;52.260;10.548;2023-08-01T09:00:00;0.20;;;0.20;;
7049;SDS011;22263;52.260;10.548;2023-08-01T09:02:34;0.20;;;0.20;;
7049;SDS011;22263;52.260;10.548;2023-08-01T09:05:04;0.20;;;0.20;;
7049;SDS011;22263;52.260;10.548;2023-08-01T09:07:34;0.20;;;0.20;;
7049;SDS011;22263;52.260;10.548;2023-08-01T09:10:11;0.20;;;0.20;;
7049;SDS011;22263;52.260;10.548;2023-08-01T09:12:40;0.10;;;0.10;;
7049;SDS011;22263;52.260;10.548;2023-08-01T09:15:10;0.20;;;0.20;;
7049;SDS011;22263;52.260;10.548;2023-08-01T09:17:48;0.10;;;0.10;;
7049;SDS011;22263;52.260;10.548;2023-08-01T09:20:19;0.10;;;0.10;;
7049;SDS011;22263;52.260;10.548;2023-08-01T09:22:49;0.10;;;0.10;;
7049;SDS011;22263;52.260;10.548;2023-08-01T09:25:30;0.10;;;0.10;;
7049;SDS011;22263;52.260;10.548;2023-08-01T09:28:00;0.10;;;0.10;;
7049;SDS011;22263;52.260;10.548;2023-08-01T09:30:30;0.10;;;0.10;;
7049;SDS011;22263;52.260;10.548;2023-08-01T09:33:00;0.20;;;0.20;;
7049;SDS011;22263;52.260;10.548;2023-08-01T09:35:30;0.13;;;0.13;;
7049;SDS011;22263;52.260;10.548;2023-08-01T09:38:07;0.03;;;0.03;;
7049;SDS011;22263;52.260;10.548;2023-08-01T09:40:40;0.10;;;0.10;;
7049;SDS011;22263;52.260;10.548;2023-08-01T09:43:10;0.10;;;0.10;;
7049;SDS011;22263;52.260;10.548;2023-08-01T09:45:49;0.10;;;0.10;;
7049;SDS011;22263;52.260;10.548;2023-08-01T09:48:23;0.10;;;0.10;;
7049;SDS011;22263;52.260;10.548;2023-08-01T09:51:04;0.10;;;0.10;;
7049;SDS011;22263;52.260;10.548;2023-08-01T09:53:35;0.10;;;0.10;;
7049;SDS011;22263;52.260;10.548;2023-08-01T09:56:08;0.10;;;0.10;;
7049;SDS011;22263;52.260;10.548;2023-08-01T09:58:38;0.00;;;0.00;;
7049;SDS011;22263;52.260;10.548;2023-08-01T10:01:09;0.10;;;0.10;;
7049;SDS011;22263;52.260;10.548;2023-08-01T10:03:39;0.10;;;0.10;;
7049;SDS011;22263;52.260;10.548;2023-08-01T10:06:17;0.10;;;0.10;;
7049;SDS011;22263;52.260;10.548;2023-08-01T10:08:49;0.05;;;0.05;;
7049;SDS011;22263;52.260;10.548;2023-08-01T10:11:22;0.10;;;0.10;;
7049;SDS011;22263;52.260;10.548;2023-08-01T10:13:53;0.10;;;0.10;;
7049;SDS011;22263;52.260;10.548;2023-08-01T10:16:36;0.10;;;0.10;;
7049;SDS011;22263;52.260;10.548;2023-08-01T10:19:13;0.03;;;0.03;;
7049;SDS011;22263;52.260;10.548;2023-08-01T10:21:44;0.10;;;0.10;;
7049;SDS011;22263;52.260;10.548;2023-08-01T10:24:18;0.10;;;0.10;;
7049;SDS011;22263;52.260;10.548;2023-08-01T10:26:51;0.10;;;0.10;;
7049;SDS011;22263;52.260;10.548;2023-08-01T10:29:21;0.10;;;0.10;;
7049;SDS011;22263;52.260;10.548;2023-08-01T10:31:51;0.10;;;0.10;;
7049;SDS011;22263;52.260;10.548;2023-08-01T10:34:22;0.00;;;0.00;;
7049;SDS011;22263;52.260;10.548;2023-08-01T10:36:55;0.10;;;0.10;;
7049;SDS011;22263;52.260;10.548;2023-08-01T10:39:26;0.10;;;0.10;;
7049;SDS011;22263;52.260;10.548;2023-08-01T10:42:00;0.10;;;0.10;;
7049;SDS011;22263;52.260;10.548;2023-08-01T10:44:32;0.10;;;0.10;;
7049;SDS011;22263;52.260;10.548;2023-08-01T10:47:03;0.10;;;0.10;;
7049;SDS011;22263;52.260;10.548;2023-08-01T10:49:35;0.00;;;0.00;;
7049;SDS011;22263;52.260;10.548;2023-08-01T10:52:15;0.10;;;0.10;;
7049;SDS011;22263;52.260;10.548;2023-08-01T10:54:46;0.10;;;0.10;;
7049;SDS011;22263;52.260;10.548;2023-08-01T10:57:18;0.10;;;0.10;;
7049;SDS011;22263;52.260;10.548;2023-08-01T10:59:48;0.10;;;0.10;;
7049;SDS011;22263;52.260;10.548;2023-08-01T11:02:22;0.10;;;0.10;;
7049;SDS011;22263;52.260;10.548;2023-08-01T11:04:56;0.10;;;0.10;;
7049;SDS011;22263;52.260;10.548;2023-08-01T11:07:30;0.10;;;0.10;;
7049;SDS011;22263;52.260;10.548;2023-08-01T11:10:07;0.05;;;0.05;;
7049;SDS011;22263;52.260;10.548;2023-08-01T11:12:41;0.10;;;0.10;;
7049;SDS011;22263;52.260;10.548;2023-08-01T11:15:13;0.00;;;0.00;;
7049;SDS011;22263;52.260;10.548;2023-08-01T11:17:46;0.10;;;0.10;;
7049;SDS011;22263;52.260;10.548;2023-08-01T11:20:17;0.10;;;0.10;;
7049;SDS011;22263;52.260;10.548;2023-08-01T11:22:49;0.10;;;0.10;;
7049;SDS011;22263;52.260;10.548;2023-08-01T11:25:33;0.10;;;0.10;;
7049;SDS011;22263;52.260;10.548;2023-08-01T11:28:08;0.10;;;0.10;;
7049;SDS011;22263;52.260;10.548;2023-08-01T11:30:47;0.10;;;0.10;;
7049;SDS011;22263;52.260;10.548;2023-08-01T11:33:40;0.10;;;0.10;;
7049;SDS011;22263;52.260;10.548;2023-08-01T11:36:10;0.10;;;0.10;;
7049;SDS011;22263;52.260;10.548;2023-08-01T11:38:40;0.05;;;0.05;;
7049;SDS011;22263;52.260;10.548;2023-08-01T11:41:10;0.10;;;0.10;;
7049;SDS011;22263;52.260;10.548;2023-08-01T11:43:43;0.10;;;0.10;;
7049;SDS011;22263;52.260;10.548;2023-08-01T11:46:13;0.10;;;0.10;;
7049;SDS011;22263;52.260;10.548;2023-08-01T11:48:44;0.10;;;0.10;;
7049;SDS011;22263;52.260;10.548;2023-08-01T11:51:16;0.10;;;0.10;;
7049;SDS011;22263;52.260;10.548;2023-08-01T11:53:46;0.00;;;0.00;;
7049;SDS011;22263;52.260;10.548;2023-08-01T11:56:19;0.10;;;0.10;;
7049;SDS011;22263;52.260;10.548;2023-08-01T11:58:56;0.10;;;0.10;;
7049;SDS011;22263;52.260;10.548;2023-08-01T12:01:39;0.10;;;0.10;;
7049;SDS011;22263;52.260;10.548;2023-08-01T12:04:23;0.10;;;0.10;;
7049;SDS011;22263;52.260;10.548;2023-08-01T12:06:53;0.10;;;0.10;;
7049;SDS011;22263;52.260;10.548;2023-08-01T12:09:23;0.10;;;0.10;;
7049;SDS011;22263;52.260;10.548;2023-08-01T12:11:59;0.10;;;0.10;;
7049;SDS011;22263;52.260;10.548;2023-08-01T12:14:33;0.10;;;0.10;;
7049;SDS011;22263;52.260;10.548;2023-08-01T12:17:03;0.10;;;0.10;;
7049;SDS011;22263;52.260;10.548;2023-08-01T12:19:34;0.10;;;0.10;;
7049;SDS011;22263;52.260;10.548;2023-08-01T12:22:04;0.10;;;0.10;;
7049;SDS011;22263;52.260;10.548;2023-08-01T12:24:33;0.10;;;0.10;;
7049;SDS011;22263;52.260;10.548;2023-08-01T12:27:04;0.10;;;0.10;;
7049;SDS011;22263;52.260;10.548;2023-08-01T12:29:38;0.10;;;0.10;;
7049;SDS011;22263;52.260;10.548;2023-08-01T12:32:08;0.10;;;0.10;;
7049;SDS011;22263;52.260;10.548;2023-08-01T12:34:42;0.10;;;0.10;;
7049;SDS011;22263;52.260;10.548;2023-08-01T12:37:12;0.10;;;0.10;;
7049;SDS011;22263;52.260;10.548;2023-08-01T12:39:42;0.10;;;0.10;;
7049;SDS011;22263;52.260;10.548;2023-08-01T12:42:12;0.10;;;0.10;;
7049;SDS011;22263;52.260;10.548;2023-08-01T12:44:44;0.10;;;0.10;;
7049;SDS011;22263;52.260;10.548;2023-08-01T12:47:14;0.10;;;0.10;;
7049;SDS011;22263;52.260;10.548;2023-08-01T12:49:44;0.00;;;0.00;;
7049;SDS011;22263;52.260;10.548;2023-08-01T12:52:21;0.10;;;0.10;;
7049;SDS011;22263;52.260;10.548;2023-08-01T12:54:54;0.10;;;0.10;;
7049;SDS011;22263;52.260;10.548;2023-08-01T12:57:26;0.08;;;0.08;;
7049;SDS011;22263;52.260;10.548;2023-08-01T12:59:59;0.03;;;0.03;;
7049;SDS011;22263;52.260;10.548;2023-08-01T13:02:32;0.10;;;0.10;;
7049;SDS011;22263;52.260;10.548;2023-08-01T13:05:02;0.10;;;0.10;;
7049;SDS011;22263;52.260;10.548;2023-08-01T13:07:32;0.10;;;0.10;;
7049;SDS011;22263;52.260;10.548;2023-08-01T13:10:03;0.10;;;0.10;;
7049;SDS011;22263;52.260;10.548;2023-08-01T13:12:34;0.10;;;0.10;;
7049;SDS011;22263;52.260;10.548;2023-08-01T13:15:07;0.00;;;0.00;;
7049;SDS011;22263;52.260;10.548;2023-08-01T13:17:43;0.00;;;0.00;;
7049;SDS011;22263;52.260;10.548;2023-08-01T13:20:13;0.05;;;0.05;;
7049;SDS011;22263;52.260;10.548;2023-08-01T13:22:45;0.00;;;0.00;;
7049;SDS011;22263;52.260;10.548;2023-08-01T13:25:15;0.10;;;0.10;;
7049;SDS011;22263;52.260;10.548;2023-08-01T13:27:46;0.00;;;0.00;;
7049;SDS011;22263;52.260;10.548;2023-08-01T13:30:18;0.10;;;0.10;;
7049;SDS011;22263;52.260;10.548;2023-08-01T13:32:48;0.10;;;0.10;;
7049;SDS011;22263;52.260;10.548;2023-08-01T13:35:18;0.05;;;0.05;;
7049;SDS011;22263;52.260;10.548;2023-08-01T13:37:48;0.10;;;0.10;;
7049;SDS011;22263;52.260;10.548;2023-08-01T13:40:17;0.10;;;0.10;;
7049;SDS011;22263;52.260;10.548;2023-08-01T13:42:47;0.10;;;0.10;;
7049;SDS011;22263;52.260;10.548;2023-08-01T13:45:20;0.13;;;0.10;;
7049;SDS011;22263;52.260;10.548;2023-08-01T13:47:50;0.00;;;0.00;;
7049;SDS011;22263;52.260;10.548;2023-08-01T13:50:20;0.10;;;0.10;;
7049;SDS011;22263;52.260;10.548;2023-08-01T13:52:49;0.00;;;0.00;;
7049;SDS011;22263;52.260;10.548;2023-08-01T13:55:24;0.00;;;0.00;;
7049;SDS011;22263;52.260;10.548;2023-08-01T13:57:54;0.00;;;0.00;;
7049;SDS011;22263;52.260;10.548;2023-08-01T14:00:26;0.10;;;0.10;;
7049;SDS011;22263;52.260;10.548;2023-08-01T14:02:56;0.10;;;0.10;;
7049;SDS011;22263;52.260;10.548;2023-08-01T14:05:26;0.10;;;0.10;;
7049;SDS011;22263;52.260;10.548;2023-08-01T14:07:56;0.00;;;0.00;;
7049;SDS011;22263;52.260;10.548;2023-08-01T14:10:33;0.10;;;0.10;;
7049;SDS011;22263;52.260;10.548;2023-08-01T14:13:08;0.10;;;0.10;;
7049;SDS011;22263;52.260;10.548;2023-08-01T14:15:40;0.10;;;0.10;;
7049;SDS011;22263;52.260;10.548;2023-08-01T14:18:10;0.10;;;0.10;;
7049;SDS011;22263;52.260;10.548;2023-08-01T14:20:40;0.10;;;0.10;;
7049;SDS011;22263;52.260;10.548;2023-08-01T14:23:09;0.10;;;0.10;;
7049;SDS011;22263;52.260;10.548;2023-08-01T14:25:39;0.10;;;0.10;;
7049;SDS011;22263;52.260;10.548;2023-08-01T14:28:10;0.10;;;0.10;;
7049;SDS011;22263;52.260;10.548;2023-08-01T14:30:43;0.10;;;0.10;;
7049;SDS011;22263;52.260;10.548;2023-08-01T14:33:13;0.10;;;0.10;;
7049;SDS011;22263;52.260;10.548;2023-08-01T14:35:43;0.10;;;0.10;;
7049;SDS011;22263;52.260;10.548;2023-08-01T14:38:15;0.10;;;0.10;;
7049;SDS011;22263;52.260;10.548;2023-08-01T14:40:45;0.10;;;0.10;;
7049;SDS011;22263;52.260;10.548;2023-08-01T14:43:37;0.10;;;0.10;;
7049;SDS011;22263;52.260;10.548;2023-08-01T14:46:11;0.10;;;0.10;;
7049;SDS011;22263;52.260;10.548;2023-08-01T14:48:42;0.10;;;0.10;;
7049;SDS011;22263;52.260;10.548;2023-08-01T14:51:11;0.10;;;0.10;;
7049;SDS011;22263;52.260;10.548;2023-08-01T14:53:41;0.10;;;0.10;;
7049;SDS011;22263;52.260;10.548;2023-08-01T14:56:11;0.20;;;0.20;;
7049;SDS011;22263;52.260;10.548;2023-08-01T14:58:41;0.13;;;0.13;;
7049;SDS011;22263;52.260;10.548;2023-08-01T15:01:16;0.10;;;0.10;;
7049;SDS011;22263;52.260;10.548;2023-08-01T15:03:47;0.10;;;0.10;;
7049;SDS011;22263;52.260;10.548;2023-08-01T15:06:17;0.10;;;0.10;;
7049;SDS011;22263;52.260;10.548;2023-08-01T15:08:47;0.17;;;0.17;;
7049;SDS011;22263;52.260;10.548;2023-08-01T15:11:17;0.10;;;0.10;;
7049;SDS011;22263;52.260;10.548;2023-08-01T15:13:47;0.17;;;0.17;;